sensor_id;sensor_type;location;lat;lon;timestamp;P1;durP1;ratioP1;P2;durP2;ratioP2
9739;SDS011;4909;42.680;26.324;2023-09-08T00:00:23;347.87;;;309.70;;
9739;SDS011;4909;42.680;26.324;2023-09-08T00:02:50;348.53;;;310.53;;
9739;SDS011;4909;42.680;26.324;2023-09-08T00:05:17;353.40;;;314.80;;
9739;SDS011;4909;42.680;26.324;2023-09-08T00:07:43;350.17;;;312.03;;
9739;SDS011;4909;42.680;26.324;2023-09-08T00:10:10;345.07;;;307.33;;
9739;SDS011;4909;42.680;26.324;2023-09-08T00:12:37;350.13;;;311.90;;
9739;SDS011;4909;42.680;26.324;2023-09-08T00:15:04;348.87;;;310.87;;
9739;SDS011;4909;42.680;26.324;2023-09-08T00:17:33;349.57;;;311.40;;
9739;SDS011;4909;42.680;26.324;2023-09-08T00:20:01;356.83;;;318.80;;
9739;SDS011;4909;42.680;26.324;2023-09-08T00:22:31;348.90;;;310.90;;
9739;SDS011;4909;42.680;26.324;2023-09-08T00:24:58;350.17;;;312.27;;
9739;SDS011;4909;42.680;26.324;2023-09-08T00:27:24;354.77;;;316.23;;
9739;SDS011;4909;42.680;26.324;2023-09-08T00:29:51;348.53;;;310.33;;
9739;SDS011;4909;42.680;26.324;2023-09-08T00:32:18;348.83;;;310.67;;
9739;SDS011;4909;42.680;26.324;2023-09-08T00:34:46;347.93;;;308.60;;
9739;SDS011;4909;42.680;26.324;2023-09-08T00:37:13;364.57;;;326.17;;
9739;SDS011;4909;42.680;26.324;2023-09-08T00:39:40;341.30;;;302.50;;
9739;SDS011;4909;42.680;26.324;2023-09-08T00:42:07;350.63;;;312.23;;
9739;SDS011;4909;42.680;26.324;2023-09-08T00:44:33;362.53;;;323.87;;
9739;SDS011;4909;42.680;26.324;2023-09-08T00:47:00;348.70;;;310.60;;
9739;SDS011;4909;42.680;26.324;2023-09-08T00:49:27;355.30;;;317.20;;
9739;SDS011;4909;42.680;26.324;2023-09-08T00:51:55;350.13;;;311.77;;
9739;SDS011;4909;42.680;26.324;2023-09-08T00:54:22;347.97;;;310.23;;
9739;SDS011;4909;42.680;26.324;2023-09-08T00:56:49;344.20;;;306.07;;
9739;SDS011;4909;42.680;26.324;2023-09-08T00:59:21;347.63;;;309.87;;
9739;SDS011;4909;42.680;26.324;2023-09-08T01:01:48;346.23;;;308.30;;
9739;SDS011;4909;42.680;26.324;2023-09-08T01:04:14;344.37;;;306.70;;
9739;SDS011;4909;42.680;26.324;2023-09-08T01:06:41;347.17;;;309.47;;
9739;SDS011;4909;42.680;26.324;2023-09-08T01:09:10;351.97;;;313.77;;
9739;SDS011;4909;42.680;26.324;2023-09-08T01:11:38;341.43;;;304.00;;
9739;SDS011;4909;42.680;26.324;2023-09-08T01:14:05;338.87;;;301.03;;
9739;SDS011;4909;42.680;26.324;2023-09-08T01:16:32;339.43;;;299.10;;
9739;SDS011;4909;42.680;26.324;2023-09-08T01:18:59;352.73;;;314.97;;
9739;SDS011;4909;42.680;26.324;2023-09-08T01:21:38;349.07;;;310.93;;
9739;SDS011;4909;42.680;26.324;2023-09-08T01:24:29;351.20;;;313.30;;
9739;SDS011;4909;42.680;26.324;2023-09-08T01:27:19;349.83;;;312.00;;
9739;SDS011;4909;42.680;26.324;2023-09-08T01:29:50;343.10;;;302.17;;
9739;SDS011;4909;42.680;26.324;2023-09-08T01:32:18;346.63;;;309.00;;
9739;SDS011;4909;42.680;26.324;2023-09-08T01:34:45;347.67;;;309.33;;
9739;SDS011;4909;42.680;26.324;2023-09-08T01:37:12;339.17;;;298.47;;
9739;SDS011;4909;42.680;26.324;2023-09-08T01:39:39;361.17;;;323.10;;
9739;SDS011;4909;42.680;26.324;2023-09-08T01:42:06;346.33;;;308.50;;
9739;SDS011;4909;42.680;26.324;2023-09-08T01:44:34;344.77;;;307.07;;
9739;SDS011;4909;42.680;26.324;2023-09-08T01:47:01;347.20;;;309.33;;
9739;SDS011;4909;42.680;26.324;2023-09-08T01:49:28;340.17;;;302.57;;
9739;SDS011;4909;42.680;26.324;2023-09-08T01:51:54;353.97;;;315.83;;
9739;SDS011;4909;42.680;26.324;2023-09-08T01:54:21;353.07;;;315.07;;
9739;SDS011;4909;42.680;26.324;2023-09-08T01:56:48;339.70;;;301.17;;
9739;SDS011;4909;42.680;26.324;2023-09-08T01:59:16;357.70;;;319.37;;
9739;SDS011;4909;42.680;26.324;2023-09-08T02:01:44;353.33;;;315.20;;
9739;SDS011;4909;42.680;26.324;2023-09-08T02:04:11;357.70;;;319.27;;
9739;SDS011;4909;42.680;26.324;2023-09-08T02:06:37;350.57;;;312.57;;
9739;SDS011;4909;42.680;26.324;2023-09-08T02:09:04;354.70;;;316.20;;
9739;SDS011;4909;42.680;26.324;2023-09-08T02:11:31;352.97;;;314.47;;
9739;SDS011;4909;42.680;26.324;2023-09-08T02:13:59;356.43;;;318.07;;
9739;SDS011;4909;42.680;26.324;2023-09-08T02:16:26;349.07;;;310.80;;
9739;SDS011;4909;42.680;26.324;2023-09-08T02:18:55;340.70;;;302.93;;
9739;SDS011;4909;42.680;26.324;2023-09-08T02:21:21;345.47;;;307.50;;
9739;SDS011;4909;42.680;26.324;2023-09-08T02:23:48;353.30;;;314.77;;
9739;SDS011;4909;42.680;26.324;2023-09-08T02:26:15;342.43;;;304.40;;
9739;SDS011;4909;42.680;26.324;2023-09-08T02:28:42;348.17;;;309.90;;
9739;SDS011;4909;42.680;26.324;2023-09-08T02:31:08;340.57;;;302.10;;
9739;SDS011;4909;42.680;26.324;2023-09-08T02:33:35;356.60;;;317.93;;
9739;SDS011;4909;42.680;26.324;2023-09-08T02:36:03;345.40;;;307.73;;
9739;SDS011;4909;42.680;26.324;2023-09-08T02:38:31;351.17;;;312.73;;
9739;SDS011;4909;42.680;26.324;2023-09-08T02:40:58;345.57;;;307.30;;
9739;SDS011;4909;42.680;26.324;2023-09-08T02:43:24;340.00;;;295.43;;
9739;SDS011;4909;42.680;26.324;2023-09-08T02:45:52;347.33;;;309.43;;
9739;SDS011;4909;42.680;26.324;2023-09-08T02:48:19;347.60;;;309.43;;
9739;SDS011;4909;42.680;26.324;2023-09-08T02:50:45;341.47;;;302.13;;
9739;SDS011;4909;42.680;26.324;2023-09-08T02:53:13;342.00;;;297.60;;
9739;SDS011;4909;42.680;26.324;2023-09-08T02:55:40;342.37;;;304.57;;
9739;SDS011;4909;42.680;26.324;2023-09-08T02:58:07;338.70;;;288.97;;
9739;SDS011;4909;42.680;26.324;2023-09-08T03:00:34;337.13;;;286.43;;
9739;SDS011;4909;42.680;26.324;2023-09-08T03:03:00;343.40;;;292.70;;
9739;SDS011;4909;42.680;26.324;2023-09-08T03:05:27;342.87;;;304.80;;
9739;SDS011;4909;42.680;26.324;2023-09-08T03:07:54;334.87;;;284.40;;
9739;SDS011;4909;42.680;26.324;2023-09-08T03:10:22;336.27;;;292.13;;
9739;SDS011;4909;42.680;26.324;2023-09-08T03:12:49;335.17;;;284.97;;
9739;SDS011;4909;42.680;26.324;2023-09-08T03:15:16;344.53;;;296.57;;
9739;SDS011;4909;42.680;26.324;2023-09-08T03:17:43;340.83;;;294.37;;
9739;SDS011;4909;42.680;26.324;2023-09-08T03:20:10;343.83;;;300.43;;
9739;SDS011;4909;42.680;26.324;2023-09-08T03:22:38;343.70;;;295.57;;
9739;SDS011;4909;42.680;26.324;2023-09-08T03:25:05;344.50;;;304.23;;
9739;SDS011;4909;42.680;26.324;2023-09-08T03:27:34;340.40;;;293.17;;
9739;SDS011;4909;42.680;26.324;2023-09-08T03:30:01;349.23;;;311.43;;
9739;SDS011;4909;42.680;26.324;2023-09-08T03:32:29;338.87;;;292.07;;
9739;SDS011;4909;42.680;26.324;2023-09-08T03:34:56;336.53;;;285.03;;
9739;SDS011;4909;42.680;26.324;2023-09-08T03:37:23;339.50;;;296.30;;
9739;SDS011;4909;42.680;26.324;2023-09-08T03:39:51;339.80;;;299.60;;
9739;SDS011;4909;42.680;26.324;2023-09-08T03:42:18;343.13;;;302.27;;
9739;SDS011;4909;42.680;26.324;2023-09-08T03:44:46;343.07;;;289.80;;
9739;SDS011;4909;42.680;26.324;2023-09-08T03:47:13;338.33;;;292.57;;
9739;SDS011;4909;42.680;26.324;2023-09-08T03:49:39;340.70;;;297.93;;
9739;SDS011;4909;42.680;26.324;2023-09-08T03:52:06;341.20;;;301.00;;
9739;SDS011;4909;42.680;26.324;2023-09-08T03:54:33;343.20;;;297.83;;
9739;SDS011;4909;42.680;26.324;2023-09-08T03:57:00;346.10;;;307.90;;
9739;SDS011;4909;42.680;26.324;2023-09-08T03:59:27;338.70;;;298.87;;
9739;SDS011;4909;42.680;26.324;2023-09-08T04:01:55;335.63;;;298.67;;
9739;SDS011;4909;42.680;26.324;2023-09-08T04:04:22;336.00;;;295.87;;
9739;SDS011;4909;42.680;26.324;2023-09-08T04:06:49;340.47;;;300.17;;
9739;SDS011;4909;42.680;26.324;2023-09-08T04:09:15;335.47;;;288.77;;
9739;SDS011;4909;42.680;26.324;2023-09-08T04:11:42;338.53;;;292.30;;
9739;SDS011;4909;42.680;26.324;2023-09-08T04:14:09;333.63;;;285.17;;
9739;SDS011;4909;42.680;26.324;2023-09-08T04:16:35;339.57;;;292.87;;
9739;SDS011;4909;42.680;26.324;2023-09-08T04:19:04;343.40;;;300.17;;
9739;SDS011;4909;42.680;26.324;2023-09-08T04:21:30;331.63;;;284.13;;
9739;SDS011;4909;42.680;26.324;2023-09-08T04:23:57;347.67;;;309.93;;
9739;SDS011;4909;42.680;26.324;2023-09-08T04:26:24;338.43;;;292.00;;
9739;SDS011;4909;42.680;26.324;2023-09-08T04:28:51;338.37;;;299.93;;
9739;SDS011;4909;42.680;26.324;2023-09-08T04:31:17;342.70;;;303.00;;
9739;SDS011;4909;42.680;26.324;2023-09-08T04:33:44;348.17;;;307.20;;
9739;SDS011;4909;42.680;26.324;2023-09-08T04:36:12;339.50;;;288.43;;
9739;SDS011;4909;42.680;26.324;2023-09-08T04:38:40;340.43;;;296.00;;
9739;SDS011;4909;42.680;26.324;2023-09-08T04:41:07;343.77;;;301.90;;
9739;SDS011;4909;42.680;26.324;2023-09-08T04:43:33;338.93;;;292.90;;
9739;SDS011;4909;42.680;26.324;2023-09-08T04:46:00;336.00;;;288.77;;
9739;SDS011;4909;42.680;26.324;2023-09-08T04:48:28;344.70;;;307.33;;
9739;SDS011;4909;42.680;26.324;2023-09-08T04:50:54;341.07;;;301.00;;
9739;SDS011;4909;42.680;26.324;2023-09-08T04:53:24;336.93;;;296.20;;
9739;SDS011;4909;42.680;26.324;2023-09-08T04:55:51;339.27;;;299.20;;
9739;SDS011;4909;42.680;26.324;2023-09-08T04:58:18;335.70;;;292.20;;
9739;SDS011;4909;42.680;26.324;2023-09-08T05:00:45;351.97;;;314.30;;
9739;SDS011;4909;42.680;26.324;2023-09-08T05:03:11;346.67;;;308.57;;
9739;SDS011;4909;42.680;26.324;2023-09-08T05:05:38;353.60;;;315.57;;
9739;SDS011;4909;42.680;26.324;2023-09-08T05:08:05;335.93;;;298.03;;
9739;SDS011;4909;42.680;26.324;2023-09-08T05:10:33;343.90;;;306.20;;
9739;SDS011;4909;42.680;26.324;2023-09-08T05:13:00;346.13;;;308.50;;
9739;SDS011;4909;42.680;26.324;2023-09-08T05:15:27;350.47;;;312.60;;
9739;SDS011;4909;42.680;26.324;2023-09-08T05:17:55;349.90;;;311.70;;
9739;SDS011;4909;42.680;26.324;2023-09-08T05:20:22;363.60;;;325.40;;
9739;SDS011;4909;42.680;26.324;2023-09-08T05:22:49;358.23;;;319.57;;
9739;SDS011;4909;42.680;26.324;2023-09-08T05:25:16;359.07;;;321.10;;
9739;SDS011;4909;42.680;26.324;2023-09-08T05:27:44;367.37;;;329.13;;
9739;SDS011;4909;42.680;26.324;2023-09-08T05:30:12;364.67;;;326.63;;
9739;SDS011;4909;42.680;26.324;2023-09-08T05:32:39;378.20;;;339.70;;
9739;SDS011;4909;42.680;26.324;2023-09-08T05:35:06;361.93;;;324.10;;
9739;SDS011;4909;42.680;26.324;2023-09-08T05:37:32;380.60;;;342.47;;
9739;SDS011;4909;42.680;26.324;2023-09-08T05:39:59;372.63;;;334.43;;
9739;SDS011;4909;42.680;26.324;2023-09-08T05:42:26;374.37;;;336.13;;
9739;SDS011;4909;42.680;26.324;2023-09-08T05:44:54;383.93;;;344.97;;
9739;SDS011;4909;42.680;26.324;2023-09-08T05:47:21;390.93;;;351.73;;
9739;SDS011;4909;42.680;26.324;2023-09-08T05:49:47;372.73;;;334.07;;
9739;SDS011;4909;42.680;26.324;2023-09-08T05:52:14;382.03;;;343.07;;
9739;SDS011;4909;42.680;26.324;2023-09-08T05:54:41;380.57;;;341.70;;
9739;SDS011;4909;42.680;26.324;2023-09-08T05:57:08;378.73;;;340.50;;
9739;SDS011;4909;42.680;26.324;2023-09-08T05:59:34;393.67;;;354.80;;
9739;SDS011;4909;42.680;26.324;2023-09-08T06:02:03;386.53;;;347.73;;
9739;SDS011;4909;42.680;26.324;2023-09-08T06:04:29;396.27;;;356.77;;
9739;SDS011;4909;42.680;26.324;2023-09-08T06:06:57;377.37;;;339.23;;
9739;SDS011;4909;42.680;26.324;2023-09-08T06:09:24;394.10;;;355.37;;
9739;SDS011;4909;42.680;26.324;2023-09-08T06:11:51;399.27;;;360.00;;
9739;SDS011;4909;42.680;26.324;2023-09-08T06:14:18;392.97;;;354.30;;
9739;SDS011;4909;42.680;26.324;2023-09-08T06:16:44;424.90;;;385.80;;
9739;SDS011;4909;42.680;26.324;2023-09-08T06:19:13;402.23;;;363.03;;
9739;SDS011;4909;42.680;26.324;2023-09-08T06:21:39;416.60;;;377.13;;
9739;SDS011;4909;42.680;26.324;2023-09-08T06:24:07;410.93;;;371.67;;
9739;SDS011;4909;42.680;26.324;2023-09-08T06:26:34;413.13;;;373.97;;
9739;SDS011;4909;42.680;26.324;2023-09-08T06:29:00;425.77;;;386.27;;
9739;SDS011;4909;42.680;26.324;2023-09-08T06:31:27;421.20;;;381.87;;
9739;SDS011;4909;42.680;26.324;2023-09-08T06:33:54;422.27;;;382.80;;
9739;SDS011;4909;42.680;26.324;2023-09-08T06:36:22;423.57;;;384.37;;
9739;SDS011;4909;42.680;26.324;2023-09-08T06:38:49;418.43;;;379.20;;
9739;SDS011;4909;42.680;26.324;2023-09-08T06:41:15;425.33;;;385.80;;
9739;SDS011;4909;42.680;26.324;2023-09-08T06:43:43;423.97;;;384.73;;
9739;SDS011;4909;42.680;26.324;2023-09-08T06:46:10;437.50;;;397.70;;
9739;SDS011;4909;42.680;26.324;2023-09-08T06:48:37;457.77;;;417.93;;
9739;SDS011;4909;42.680;26.324;2023-09-08T06:51:04;441.67;;;401.90;;
9739;SDS011;4909;42.680;26.324;2023-09-08T06:53:32;449.03;;;409.30;;
9739;SDS011;4909;42.680;26.324;2023-09-08T06:55:58;450.33;;;410.50;;
9739;SDS011;4909;42.680;26.324;2023-09-08T06:58:25;465.53;;;424.93;;
9739;SDS011;4909;42.680;26.324;2023-09-08T07:00:52;460.83;;;420.47;;
9739;SDS011;4909;42.680;26.324;2023-09-08T07:03:19;451.17;;;411.47;;
9739;SDS011;4909;42.680;26.324;2023-09-08T07:05:47;447.93;;;407.83;;
9739;SDS011;4909;42.680;26.324;2023-09-08T07:08:15;457.37;;;416.90;;
9739;SDS011;4909;42.680;26.324;2023-09-08T07:10:44;461.23;;;420.73;;
9739;SDS011;4909;42.680;26.324;2023-09-08T07:13:11;467.67;;;427.80;;
9739;SDS011;4909;42.680;26.324;2023-09-08T07:15:38;458.93;;;418.80;;
9739;SDS011;4909;42.680;26.324;2023-09-08T07:18:05;477.70;;;437.73;;
9739;SDS011;4909;42.680;26.324;2023-09-08T07:20:32;468.23;;;428.07;;
9739;SDS011;4909;42.680;26.324;2023-09-08T07:23:00;481.67;;;441.17;;
9739;SDS011;4909;42.680;26.324;2023-09-08T07:25:26;485.47;;;445.17;;
9739;SDS011;4909;42.680;26.324;2023-09-08T07:27:54;494.87;;;454.00;;
9739;SDS011;4909;42.680;26.324;2023-09-08T07:30:21;479.83;;;439.73;;
9739;SDS011;4909;42.680;26.324;2023-09-08T07:32:48;479.73;;;439.60;;
9739;SDS011;4909;42.680;26.324;2023-09-08T07:35:15;477.97;;;437.87;;
9739;SDS011;4909;42.680;26.324;2023-09-08T07:37:42;489.40;;;448.80;;
9739;SDS011;4909;42.680;26.324;2023-09-08T07:40:09;480.47;;;440.37;;
9739;SDS011;4909;42.680;26.324;2023-09-08T07:42:36;498.90;;;458.53;;
9739;SDS011;4909;42.680;26.324;2023-09-08T07:45:05;504.97;;;464.27;;
9739;SDS011;4909;42.680;26.324;2023-09-08T07:47:34;507.87;;;467.13;;
9739;SDS011;4909;42.680;26.324;2023-09-08T07:50:16;513.23;;;472.50;;
9739;SDS011;4909;42.680;26.324;2023-09-08T07:52:44;521.77;;;480.90;;
9739;SDS011;4909;42.680;26.324;2023-09-08T07:55:10;514.83;;;474.03;;
9739;SDS011;4909;42.680;26.324;2023-09-08T07:57:37;529.93;;;488.80;;
9739;SDS011;4909;42.680;26.324;2023-09-08T08:00:06;529.83;;;488.73;;
9739;SDS011;4909;42.680;26.324;2023-09-08T08:02:35;540.97;;;499.60;;
9739;SDS011;4909;42.680;26.324;2023-09-08T08:05:03;550.67;;;509.20;;
9739;SDS011;4909;42.680;26.324;2023-09-08T08:07:31;565.63;;;524.33;;
9739;SDS011;4909;42.680;26.324;2023-09-08T08:09:58;580.67;;;538.57;;
9739;SDS011;4909;42.680;26.324;2023-09-08T08:12:25;576.20;;;534.50;;
9739;SDS011;4909;42.680;26.324;2023-09-08T08:14:52;577.80;;;535.90;;
9739;SDS011;4909;42.680;26.324;2023-09-08T08:17:20;592.50;;;550.53;;
9739;SDS011;4909;42.680;26.324;2023-09-08T08:19:47;602.33;;;560.23;;
9739;SDS011;4909;42.680;26.324;2023-09-08T08:22:13;587.97;;;546.27;;
9739;SDS011;4909;42.680;26.324;2023-09-08T08:24:40;592.97;;;551.37;;
9739;SDS011;4909;42.680;26.324;2023-09-08T08:27:07;583.67;;;541.93;;
9739;SDS011;4909;42.680;26.324;2023-09-08T08:29:34;566.63;;;525.07;;
9739;SDS011;4909;42.680;26.324;2023-09-08T08:32:00;571.87;;;530.37;;
9739;SDS011;4909;42.680;26.324;2023-09-08T08:34:28;577.07;;;535.27;;
9739;SDS011;4909;42.680;26.324;2023-09-08T08:36:55;578.67;;;536.93;;
9739;SDS011;4909;42.680;26.324;2023-09-08T08:39:22;582.67;;;540.23;;
9739;SDS011;4909;42.680;26.324;2023-09-08T08:41:49;565.57;;;524.37;;
9739;SDS011;4909;42.680;26.324;2023-09-08T08:44:16;572.30;;;530.53;;
9739;SDS011;4909;42.680;26.324;2023-09-08T08:46:43;575.43;;;533.90;;
9739;SDS011;4909;42.680;26.324;2023-09-08T08:49:12;574.53;;;533.00;;
9739;SDS011;4909;42.680;26.324;2023-09-08T08:51:44;567.30;;;526.27;;
9739;SDS011;4909;42.680;26.324;2023-09-08T08:54:12;569.07;;;526.77;;
9739;SDS011;4909;42.680;26.324;2023-09-08T08:56:39;553.67;;;512.80;;
9739;SDS011;4909;42.680;26.324;2023-09-08T08:59:07;564.07;;;523.07;;
9739;SDS011;4909;42.680;26.324;2023-09-08T09:01:36;566.47;;;525.30;;
9739;SDS011;4909;42.680;26.324;2023-09-08T09:04:04;572.60;;;531.17;;
9739;SDS011;4909;42.680;26.324;2023-09-08T09:06:32;558.90;;;517.57;;
9739;SDS011;4909;42.680;26.324;2023-09-08T09:09:00;572.57;;;531.37;;
9739;SDS011;4909;42.680;26.324;2023-09-08T09:11:28;554.40;;;513.20;;
9739;SDS011;4909;42.680;26.324;2023-09-08T09:13:56;584.07;;;542.50;;
9739;SDS011;4909;42.680;26.324;2023-09-08T09:16:22;579.20;;;537.67;;
9739;SDS011;4909;42.680;26.324;2023-09-08T09:18:56;582.63;;;541.27;;
9739;SDS011;4909;42.680;26.324;2023-09-08T09:21:23;579.97;;;537.97;;
9739;SDS011;4909;42.680;26.324;2023-09-08T09:23:51;572.33;;;530.63;;
9739;SDS011;4909;42.680;26.324;2023-09-08T09:26:25;575.63;;;534.33;;
9739;SDS011;4909;42.680;26.324;2023-09-08T09:28:52;551.67;;;510.27;;
9739;SDS011;4909;42.680;26.324;2023-09-08T09:31:22;575.63;;;533.63;;
9739;SDS011;4909;42.680;26.324;2023-09-08T09:34:00;551.67;;;510.50;;
9739;SDS011;4909;42.680;26.324;2023-09-08T09:36:29;567.77;;;526.40;;
9739;SDS011;4909;42.680;26.324;2023-09-08T09:38:57;544.77;;;503.63;;
9739;SDS011;4909;42.680;26.324;2023-09-08T09:41:26;540.47;;;499.20;;
9739;SDS011;4909;42.680;26.324;2023-09-08T09:43:54;551.73;;;509.97;;
9739;SDS011;4909;42.680;26.324;2023-09-08T09:46:21;532.77;;;491.83;;
9739;SDS011;4909;42.680;26.324;2023-09-08T09:48:50;535.23;;;494.57;;
9739;SDS011;4909;42.680;26.324;2023-09-08T09:51:18;543.10;;;501.97;;
9739;SDS011;4909;42.680;26.324;2023-09-08T09:53:46;553.83;;;512.10;;
9739;SDS011;4909;42.680;26.324;2023-09-08T09:56:13;533.83;;;493.13;;
9739;SDS011;4909;42.680;26.324;2023-09-08T09:58:44;532.03;;;490.50;;
9739;SDS011;4909;42.680;26.324;2023-09-08T10:01:11;522.93;;;481.70;;
9739;SDS011;4909;42.680;26.324;2023-09-08T10:03:38;519.63;;;478.83;;
9739;SDS011;4909;42.680;26.324;2023-09-08T10:06:05;527.30;;;486.50;;
9739;SDS011;4909;42.680;26.324;2023-09-08T10:08:33;517.27;;;476.40;;
9739;SDS011;4909;42.680;26.324;2023-09-08T10:11:02;529.97;;;488.97;;
9739;SDS011;4909;42.680;26.324;2023-09-08T10:13:33;532.73;;;491.43;;
9739;SDS011;4909;42.680;26.324;2023-09-08T10:16:07;531.63;;;490.40;;
9739;SDS011;4909;42.680;26.324;2023-09-08T10:18:39;536.53;;;495.23;;
9739;SDS011;4909;42.680;26.324;2023-09-08T10:21:10;536.63;;;495.80;;
9739;SDS011;4909;42.680;26.324;2023-09-08T10:23:39;547.13;;;505.93;;
9739;SDS011;4909;42.680;26.324;2023-09-08T10:26:09;532.70;;;491.80;;
9739;SDS011;4909;42.680;26.324;2023-09-08T10:28:37;526.30;;;485.83;;
9739;SDS011;4909;42.680;26.324;2023-09-08T10:31:04;514.83;;;474.13;;
9739;SDS011;4909;42.680;26.324;2023-09-08T10:33:33;529.30;;;488.60;;
9739;SDS011;4909;42.680;26.324;2023-09-08T10:36:02;538.43;;;497.33;;
9739;SDS011;4909;42.680;26.324;2023-09-08T10:38:31;537.17;;;495.63;;
9739;SDS011;4909;42.680;26.324;2023-09-08T10:43:54;524.03;;;483.07;;
9739;SDS011;4909;42.680;26.324;2023-09-08T10:46:23;538.47;;;497.37;;
9739;SDS011;4909;42.680;26.324;2023-09-08T10:48:55;534.37;;;493.47;;
9739;SDS011;4909;42.680;26.324;2023-09-08T10:51:27;524.63;;;484.07;;
9739;SDS011;4909;42.680;26.324;2023-09-08T10:53:54;532.77;;;491.73;;
9739;SDS011;4909;42.680;26.324;2023-09-08T10:56:20;512.80;;;472.47;;
9739;SDS011;4909;42.680;26.324;2023-09-08T10:58:48;520.60;;;479.40;;
9739;SDS011;4909;42.680;26.324;2023-09-08T11:01:18;527.13;;;486.20;;
9739;SDS011;4909;42.680;26.324;2023-09-08T11:03:48;522.67;;;481.93;;
9739;SDS011;4909;42.680;26.324;2023-09-08T11:06:17;534.03;;;492.97;;
9739;SDS011;4909;42.680;26.324;2023-09-08T11:08:47;528.40;;;487.37;;
9739;SDS011;4909;42.680;26.324;2023-09-08T11:11:15;515.07;;;474.47;;
9739;SDS011;4909;42.680;26.324;2023-09-08T11:13:43;534.30;;;493.17;;
9739;SDS011;4909;42.680;26.324;2023-09-08T11:16:11;510.53;;;469.83;;
9739;SDS011;4909;42.680;26.324;2023-09-08T11:18:37;497.47;;;457.23;;
9739;SDS011;4909;42.680;26.324;2023-09-08T11:21:07;496.10;;;455.57;;
9739;SDS011;4909;42.680;26.324;2023-09-08T11:23:36;512.10;;;471.57;;
9739;SDS011;4909;42.680;26.324;2023-09-08T11:26:04;526.47;;;485.77;;
9739;SDS011;4909;42.680;26.324;2023-09-08T11:28:33;518.33;;;477.53;;
9739;SDS011;4909;42.680;26.324;2023-09-08T11:31:00;507.23;;;466.77;;
9739;SDS011;4909;42.680;26.324;2023-09-08T11:33:32;508.90;;;468.37;;
9739;SDS011;4909;42.680;26.324;2023-09-08T11:36:10;529.23;;;488.00;;
9739;SDS011;4909;42.680;26.324;2023-09-08T11:38:40;505.73;;;465.40;;
9739;SDS011;4909;42.680;26.324;2023-09-08T11:41:09;495.30;;;454.90;;
9739;SDS011;4909;42.680;26.324;2023-09-08T11:43:36;494.77;;;454.47;;
9739;SDS011;4909;42.680;26.324;2023-09-08T11:46:06;573.30;;;530.97;;
9739;SDS011;4909;42.680;26.324;2023-09-08T11:48:33;506.90;;;466.57;;
9739;SDS011;4909;42.680;26.324;2023-09-08T11:51:00;503.13;;;462.37;;
9739;SDS011;4909;42.680;26.324;2023-09-08T11:53:27;507.47;;;467.10;;
9739;SDS011;4909;42.680;26.324;2023-09-08T11:55:55;500.70;;;460.00;;
9739;SDS011;4909;42.680;26.324;2023-09-08T11:58:22;486.10;;;445.63;;
9739;SDS011;4909;42.680;26.324;2023-09-08T12:00:50;490.70;;;450.30;;
9739;SDS011;4909;42.680;26.324;2023-09-08T12:03:17;488.80;;;448.47;;
9739;SDS011;4909;42.680;26.324;2023-09-08T12:05:44;494.57;;;453.87;;
9739;SDS011;4909;42.680;26.324;2023-09-08T12:08:17;498.73;;;458.30;;
9739;SDS011;4909;42.680;26.324;2023-09-08T12:10:44;493.13;;;452.67;;
9739;SDS011;4909;42.680;26.324;2023-09-08T12:13:12;490.47;;;450.17;;
9739;SDS011;4909;42.680;26.324;2023-09-08T12:15:46;491.33;;;450.77;;
9739;SDS011;4909;42.680;26.324;2023-09-08T12:18:13;491.60;;;451.23;;
9739;SDS011;4909;42.680;26.324;2023-09-08T12:20:41;504.47;;;463.87;;
9739;SDS011;4909;42.680;26.324;2023-09-08T12:23:15;513.97;;;473.30;;
9739;SDS011;4909;42.680;26.324;2023-09-08T12:25:44;509.43;;;468.73;;
9739;SDS011;4909;42.680;26.324;2023-09-08T12:28:12;507.67;;;466.83;;
9739;SDS011;4909;42.680;26.324;2023-09-08T12:30:39;509.77;;;468.97;;
9739;SDS011;4909;42.680;26.324;2023-09-08T12:33:06;509.23;;;468.57;;
9739;SDS011;4909;42.680;26.324;2023-09-08T12:35:34;508.70;;;468.10;;
9739;SDS011;4909;42.680;26.324;2023-09-08T12:38:02;523.63;;;483.00;;
9739;SDS011;4909;42.680;26.324;2023-09-08T12:40:31;514.30;;;473.20;;
9739;SDS011;4909;42.680;26.324;2023-09-08T12:43:00;512.10;;;471.00;;
9739;SDS011;4909;42.680;26.324;2023-09-08T12:45:28;490.60;;;449.97;;
9739;SDS011;4909;42.680;26.324;2023-09-08T12:50:25;510.53;;;469.53;;
9739;SDS011;4909;42.680;26.324;2023-09-08T12:52:52;493.83;;;453.30;;
9739;SDS011;4909;42.680;26.324;2023-09-08T12:55:19;486.60;;;446.00;;
9739;SDS011;4909;42.680;26.324;2023-09-08T12:57:46;472.90;;;432.80;;
9739;SDS011;4909;42.680;26.324;2023-09-08T13:00:15;486.13;;;445.43;;
9739;SDS011;4909;42.680;26.324;2023-09-08T13:02:43;475.87;;;435.77;;
9739;SDS011;4909;42.680;26.324;2023-09-08T13:05:10;482.37;;;442.30;;
9739;SDS011;4909;42.680;26.324;2023-09-08T13:07:37;472.03;;;431.93;;
9739;SDS011;4909;42.680;26.324;2023-09-08T13:10:04;461.50;;;421.00;;
9739;SDS011;4909;42.680;26.324;2023-09-08T13:12:31;469.03;;;428.67;;
9739;SDS011;4909;42.680;26.324;2023-09-08T13:14:58;487.20;;;447.00;;
9739;SDS011;4909;42.680;26.324;2023-09-08T13:17:25;460.40;;;420.60;;
9739;SDS011;4909;42.680;26.324;2023-09-08T13:19:53;467.63;;;427.23;;
9739;SDS011;4909;42.680;26.324;2023-09-08T13:22:20;456.20;;;416.70;;
9739;SDS011;4909;42.680;26.324;2023-09-08T13:24:46;453.17;;;413.00;;
9739;SDS011;4909;42.680;26.324;2023-09-08T13:27:13;471.00;;;431.33;;
9739;SDS011;4909;42.680;26.324;2023-09-08T13:29:42;453.83;;;414.20;;
9739;SDS011;4909;42.680;26.324;2023-09-08T13:32:09;469.73;;;429.63;;
9739;SDS011;4909;42.680;26.324;2023-09-08T13:34:35;437.30;;;397.97;;
9739;SDS011;4909;42.680;26.324;2023-09-08T13:37:05;464.33;;;424.73;;
9739;SDS011;4909;42.680;26.324;2023-09-08T13:39:31;440.33;;;401.10;;
9739;SDS011;4909;42.680;26.324;2023-09-08T13:41:59;463.47;;;423.67;;
9739;SDS011;4909;42.680;26.324;2023-09-08T13:44:26;470.13;;;430.17;;
9739;SDS011;4909;42.680;26.324;2023-09-08T13:46:53;458.47;;;418.83;;
9739;SDS011;4909;42.680;26.324;2023-09-08T13:49:21;465.87;;;426.20;;
9739;SDS011;4909;42.680;26.324;2023-09-08T13:51:48;446.50;;;406.07;;
9739;SDS011;4909;42.680;26.324;2023-09-08T13:54:18;469.47;;;429.70;;
9739;SDS011;4909;42.680;26.324;2023-09-08T13:56:45;471.70;;;431.10;;
9739;SDS011;4909;42.680;26.324;2023-09-08T13:59:23;459.93;;;419.77;;
9739;SDS011;4909;42.680;26.324;2023-09-08T14:01:49;473.90;;;433.80;;
9739;SDS011;4909;42.680;26.324;2023-09-08T14:04:16;462.80;;;422.07;;
9739;SDS011;4909;42.680;26.324;2023-09-08T14:06:43;468.30;;;428.33;;
9739;SDS011;4909;42.680;26.324;2023-09-08T14:09:10;460.43;;;420.47;;
9739;SDS011;4909;42.680;26.324;2023-09-08T14:11:38;452.40;;;412.57;;
9739;SDS011;4909;42.680;26.324;2023-09-08T14:14:04;472.50;;;432.27;;
9739;SDS011;4909;42.680;26.324;2023-09-08T14:16:31;469.47;;;429.20;;